sensor_id;sensor_type;location;lat;lon;timestamp;pressure;altitude;pressure_sealevel;temperature;humidity
57904;BME280;43720;47.462;19.030;2023-02-17T05:01:09;101207.00;;;3.17;90.80
57904;BME280;43720;47.462;19.030;2023-02-17T05:04:11;101214.59;;;3.14;90.16
57904;BME280;43720;47.462;19.030;2023-02-17T05:07:13;101224.44;;;3.36;89.37
57904;BME280;43720;47.462;19.030;2023-02-17T05:10:17;101212.06;;;3.30;89.59
57904;BME280;43720;47.462;19.030;2023-02-17T05:13:19;101207.78;;;3.46;88.36
57904;BME280;43720;47.462;19.030;2023-02-17T05:16:22;101211.84;;;3.57;86.72
57904;BME280;43720;47.462;19.030;2023-02-17T05:19:24;101220.19;;;3.67;86.63
57904;BME280;43720;47.462;19.030;2023-02-17T05:22:27;101214.78;;;3.79;85.51
57904;BME280;43720;47.462;19.030;2023-02-17T05:25:29;101210.84;;;3.86;84.57
57904;BME280;43720;47.462;19.030;2023-02-17T05:28:32;101218.62;;;3.86;84.37
57904;BME280;43720;47.462;19.030;2023-02-17T05:31:34;101217.25;;;3.92;84.01
57904;BME280;43720;47.462;19.030;2023-02-17T05:34:37;101218.88;;;3.90;83.78
57904;BME280;43720;47.462;19.030;2023-02-17T05:37:39;101213.22;;;3.98;83.75
57904;BME280;43720;47.462;19.030;2023-02-17T05:40:41;101215.81;;;3.98;83.39
57904;BME280;43720;47.462;19.030;2023-02-17T05:43:45;101212.69;;;4.03;83.27
57904;BME280;43720;47.462;19.030;2023-02-17T05:46:48;101208.06;;;4.14;83.75
57904;BME280;43720;47.462;19.030;2023-02-17T05:49:50;101201.62;;;4.22;83.31
57904;BME280;43720;47.462;19.030;2023-02-17T05:52:52;101207.03;;;4.27;82.56
57904;BME280;43720;47.462;19.030;2023-02-17T05:55:55;101203.81;;;4.31;81.21
57904;BME280;43720;47.462;19.030;2023-02-17T05:58:57;101213.09;;;4.44;81.04
57904;BME280;43720;47.462;19.030;2023-02-17T06:02:01;101215.03;;;4.48;80.66
57904;BME280;43720;47.462;19.030;2023-02-17T06:05:03;101210.00;;;4.67;79.58
57904;BME280;43720;47.462;19.030;2023-02-17T06:08:06;101205.12;;;4.73;79.42
57904;BME280;43720;47.462;19.030;2023-02-17T06:11:09;101204.56;;;4.79;79.07
57904;BME280;43720;47.462;19.030;2023-02-17T06:14:11;101208.84;;;4.78;79.53
57904;BME280;43720;47.462;19.030;2023-02-17T06:17:13;101202.28;;;4.85;79.00
57904;BME280;43720;47.462;19.030;2023-02-17T06:20:15;101202.50;;;4.89;78.29
57904;BME280;43720;47.462;19.030;2023-02-17T06:23:18;101218.47;;;4.81;79.07
57904;BME280;43720;47.462;19.030;2023-02-17T06:26:20;101215.47;;;4.89;78.18
57904;BME280;43720;47.462;19.030;2023-02-17T06:29:23;101226.56;;;4.87;79.05
57904;BME280;43720;47.462;19.030;2023-02-17T06:32:25;101231.34;;;4.96;78.12
57904;BME280;43720;47.462;19.030;2023-02-17T06:35:27;101236.75;;;5.00;77.88
57904;BME280;43720;47.462;19.030;2023-02-17T06:38:29;101232.16;;;5.12;77.62
57904;BME280;43720;47.462;19.030;2023-02-17T06:41:32;101223.22;;;5.24;76.69
57904;BME280;43720;47.462;19.030;2023-02-17T06:44:34;101235.97;;;5.19;76.73
57904;BME280;43720;47.462;19.030;2023-02-17T06:47:36;101237.13;;;5.26;76.76
57904;BME280;43720;47.462;19.030;2023-02-17T06:50:39;101232.56;;;5.20;77.00
57904;BME280;43720;47.462;19.030;2023-02-17T06:53:41;101236.25;;;5.25;77.35
57904;BME280;43720;47.462;19.030;2023-02-17T06:56:43;101231.38;;;5.31;76.71
57904;BME280;43720;47.462;19.030;2023-02-17T06:59:46;101229.91;;;5.36;76.81
57904;BME280;43720;47.462;19.030;2023-02-17T07:02:48;101229.75;;;5.51;76.67
57904;BME280;43720;47.462;19.030;2023-02-17T07:05:50;101231.84;;;5.58;76.12
57904;BME280;43720;47.462;19.030;2023-02-17T07:08:58;101233.75;;;5.62;75.98
57904;BME280;43720;47.462;19.030;2023-02-17T07:12:01;101223.97;;;5.75;74.64
57904;BME280;43720;47.462;19.030;2023-02-17T07:15:03;101224.91;;;5.77;75.25
57904;BME280;43720;47.462;19.030;2023-02-17T07:18:05;101232.41;;;5.88;75.02
57904;BME280;43720;47.462;19.030;2023-02-17T07:21:08;101228.53;;;5.80;75.17
57904;BME280;43720;47.462;19.030;2023-02-17T07:24:11;101231.13;;;5.80;75.47
57904;BME280;43720;47.462;19.030;2023-02-17T07:27:13;101232.41;;;5.88;74.56
57904;BME280;43720;47.462;19.030;2023-02-17T07:30:16;101239.44;;;5.91;74.91
57904;BME280;43720;47.462;19.030;2023-02-17T07:33:18;101233.87;;;5.83;74.81
57904;BME280;43720;47.462;19.030;2023-02-17T07:36:21;101226.69;;;5.96;74.54
57904;BME280;43720;47.462;19.030;2023-02-17T07:39:23;101218.12;;;5.97;74.67
57904;BME280;43720;47.462;19.030;2023-02-17T07:42:26;101224.41;;;6.02;74.50
57904;BME280;43720;47.462;19.030;2023-02-17T07:45:29;101221.88;;;6.03;73.98
57904;BME280;43720;47.462;19.030;2023-02-17T07:48:31;101225.78;;;6.13;73.92
57904;BME280;43720;47.462;19.030;2023-02-17T07:51:33;101212.53;;;6.26;74.18
57904;BME280;43720;47.462;19.030;2023-02-17T07:54:36;101206.41;;;6.44;72.94
57904;BME280;43720;47.462;19.030;2023-02-17T07:57:38;101202.13;;;6.65;71.92
57904;BME280;43720;47.462;19.030;2023-02-17T08:00:41;101207.19;;;6.81;72.18
57904;BME280;43720;47.462;19.030;2023-02-17T08:03:44;101200.84;;;6.96;70.65
57904;BME280;43720;47.462;19.030;2023-02-17T08:15:21;101197.97;;;7.31;69.24
57904;BME280;43720;47.462;19.030;2023-02-17T08:18:23;101198.91;;;7.54;67.89
57904;BME280;43720;47.462;19.030;2023-02-17T08:21:26;101199.16;;;7.60;68.76
57904;BME280;43720;47.462;19.030;2023-02-17T08:24:28;101205.59;;;7.70;68.22
57904;BME280;43720;47.462;19.030;2023-02-17T08:27:31;101216.53;;;7.82;67.51
57904;BME280;43720;47.462;19.030;2023-02-17T08:30:34;101214.13;;;8.11;65.70
57904;BME280;43720;47.462;19.030;2023-02-17T08:33:37;101217.75;;;8.37;65.74
57904;BME280;43720;47.462;19.030;2023-02-17T08:36:40;101219.97;;;8.50;64.61
57904;BME280;43720;47.462;19.030;2023-02-17T08:39:42;101210.78;;;8.60;63.97
57904;BME280;43720;47.462;19.030;2023-02-17T08:42:44;101216.56;;;8.77;62.57
57904;BME280;43720;47.462;19.030;2023-02-17T08:45:47;101219.13;;;9.01;62.56
57904;BME280;43720;47.462;19.030;2023-02-17T08:48:50;101215.44;;;9.20;61.81
57904;BME280;43720;47.462;19.030;2023-02-17T08:51:52;101206.97;;;9.27;60.80
57904;BME280;43720;47.462;19.030;2023-02-17T08:54:55;101205.53;;;9.37;61.58
57904;BME280;43720;47.462;19.030;2023-02-17T08:57:57;101202.38;;;9.45;61.65
57904;BME280;43720;47.462;19.030;2023-02-17T09:01:00;101202.78;;;9.59;60.24
57904;BME280;43720;47.462;19.030;2023-02-17T09:04:04;101204.72;;;9.65;59.49
57904;BME280;43720;47.462;19.030;2023-02-17T09:07:10;101217.94;;;9.71;58.47
57904;BME280;43720;47.462;19.030;2023-02-17T09:10:12;101212.87;;;9.75;57.62
57904;BME280;43720;47.462;19.030;2023-02-17T09:13:16;101210.72;;;9.91;57.73
57904;BME280;43720;47.462;19.030;2023-02-17T09:16:18;101199.09;;;10.10;57.67
57904;BME280;43720;47.462;19.030;2023-02-17T09:19:23;101203.03;;;10.24;56.36
57904;BME280;43720;47.462;19.030;2023-02-17T09:22:25;101200.66;;;10.32;54.82
57904;BME280;43720;47.462;19.030;2023-02-17T09:25:33;101193.88;;;10.38;54.66
57904;BME280;43720;47.462;19.030;2023-02-17T09:28:36;101196.28;;;10.62;54.31
57904;BME280;43720;47.462;19.030;2023-02-17T09:31:39;101197.62;;;10.80;54.17
57904;BME280;43720;47.462;19.030;2023-02-17T09:34:42;101189.47;;;11.00;54.21
57904;BME280;43720;47.462;19.030;2023-02-17T09:37:56;101181.72;;;11.05;52.69
57904;BME280;43720;47.462;19.030;2023-02-17T09:41:21;101188.06;;;11.15;52.45
57904;BME280;43720;47.462;19.030;2023-02-17T09:44:45;101185.50;;;11.16;53.24
57904;BME280;43720;47.462;19.030;2023-02-17T09:47:52;101194.25;;;11.18;53.28
57904;BME280;43720;47.462;19.030;2023-02-17T09:51:01;101191.12;;;11.33;53.06
57904;BME280;43720;47.462;19.030;2023-02-17T09:54:36;101200.03;;;11.40;52.15
57904;BME280;43720;47.462;19.030;2023-02-17T09:57:51;101190.72;;;11.52;52.44
57904;BME280;43720;47.462;19.030;2023-02-17T10:00:57;101179.72;;;11.67;52.09
57904;BME280;43720;47.462;19.030;2023-02-17T10:07:29;101176.78;;;11.54;52.24
57904;BME280;43720;47.462;19.030;2023-02-17T10:10:39;101172.22;;;11.45;52.95
57904;BME280;43720;47.462;19.030;2023-02-17T10:13:45;101162.59;;;11.44;52.38
57904;BME280;43720;47.462;19.030;2023-02-17T10:16:52;101163.34;;;11.38;53.43
57904;BME280;43720;47.462;19.030;2023-02-17T10:20:10;101159.91;;;11.41;53.68
57904;BME280;43720;47.462;19.030;2023-02-17T10:23:23;101152.22;;;11.47;54.60
57904;BME280;43720;47.462;19.030;2023-02-17T10:37:00;101140.78;;;11.43;56.22
57904;BME280;43720;47.462;19.030;2023-02-17T10:40:19;101143.22;;;11.36;56.84
57904;BME280;43720;47.462;19.030;2023-02-17T10:43:27;101146.47;;;11.25;56.89
57904;BME280;43720;47.462;19.030;2023-02-17T10:46:31;101142.78;;;11.19;57.87
57904;BME280;43720;47.462;19.030;2023-02-17T10:49:38;101134.19;;;11.23;57.39
57904;BME280;43720;47.462;19.030;2023-02-17T10:52:43;101133.44;;;11.29;57.12
57904;BME280;43720;47.462;19.030;2023-02-17T10:55:55;101134.22;;;11.24;57.70
57904;BME280;43720;47.462;19.030;2023-02-17T11:02:41;101112.78;;;11.41;57.41
57904;BME280;43720;47.462;19.030;2023-02-17T11:05:43;101122.09;;;11.28;58.06
57904;BME280;43720;47.462;19.030;2023-02-17T11:08:58;101114.19;;;11.26;57.36
57904;BME280;43720;47.462;19.030;2023-02-17T11:12:05;101110.75;;;11.27;57.69
57904;BME280;43720;47.462;19.030;2023-02-17T11:15:18;101108.06;;;11.24;57.53
57904;BME280;43720;47.462;19.030;2023-02-17T11:18:27;101093.41;;;11.33;57.70
57904;BME280;43720;47.462;19.030;2023-02-17T11:21:30;101096.44;;;11.51;57.15
57904;BME280;43720;47.462;19.030;2023-02-17T11:24:34;101089.50;;;11.53;56.46
57904;BME280;43720;47.462;19.030;2023-02-17T11:27:37;101089.53;;;11.55;56.51
57904;BME280;43720;47.462;19.030;2023-02-17T11:30:48;101075.75;;;11.63;56.79
57904;BME280;43720;47.462;19.030;2023-02-17T11:33:51;101073.38;;;11.75;56.59
57904;BME280;43720;47.462;19.030;2023-02-17T11:37:20;101078.63;;;11.75;56.84
57904;BME280;43720;47.462;19.030;2023-02-17T11:40:31;101064.03;;;11.85;56.11
57904;BME280;43720;47.462;19.030;2023-02-17T11:43:35;101060.19;;;11.69;56.59
57904;BME280;43720;47.462;19.030;2023-02-17T11:49:55;101064.63;;;11.73;56.01
57904;BME280;43720;47.462;19.030;2023-02-17T11:56:16;101052.84;;;11.94;56.27
57904;BME280;43720;47.462;19.030;2023-02-17T12:06:20;101044.34;;;12.07;55.60
57904;BME280;43720;47.462;19.030;2023-02-17T12:09:47;101054.66;;;11.96;56.65
57904;BME280;43720;47.462;19.030;2023-02-17T12:13:18;101043.69;;;11.75;57.12
57904;BME280;43720;47.462;19.030;2023-02-17T12:20:30;101030.47;;;11.69;57.90
57904;BME280;43720;47.462;19.030;2023-02-17T12:26:57;101011.00;;;11.55;58.75
57904;BME280;43720;47.462;19.030;2023-02-17T12:30:36;101012.03;;;11.64;58.75
57904;BME280;43720;47.462;19.030;2023-02-17T12:37:31;101004.41;;;11.75;59.27
57904;BME280;43720;47.462;19.030;2023-02-17T12:40:40;101015.09;;;11.84;59.70
57904;BME280;43720;47.462;19.030;2023-02-17T12:44:00;101009.31;;;12.02;59.05
57904;BME280;43720;47.462;19.030;2023-02-17T12:47:16;101009.53;;;12.14;58.57
57904;BME280;43720;47.462;19.030;2023-02-17T12:50:38;101008.59;;;12.61;59.09
57904;BME280;43720;47.462;19.030;2023-02-17T12:53:52;101007.03;;;12.70;59.16
57904;BME280;43720;47.462;19.030;2023-02-17T12:57:04;101003.88;;;12.96;59.61
57904;BME280;43720;47.462;19.030;2023-02-17T13:00:19;100999.53;;;12.96;58.15
57904;BME280;43720;47.462;19.030;2023-02-17T13:03:23;101000.38;;;12.94;57.65
57904;BME280;43720;47.462;19.030;2023-02-17T13:06:32;101000.31;;;12.91;57.87
57904;BME280;43720;47.462;19.030;2023-02-17T13:09:40;100995.66;;;12.73;58.75
57904;BME280;43720;47.462;19.030;2023-02-17T13:12:57;100989.34;;;12.60;59.38
57904;BME280;43720;47.462;19.030;2023-02-17T13:16:10;100983.84;;;12.43;60.18
57904;BME280;43720;47.462;19.030;2023-02-17T13:19:14;100992.41;;;12.35;60.59
57904;BME280;43720;47.462;19.030;2023-02-17T13:22:23;100997.50;;;12.24;62.42
57904;BME280;43720;47.462;19.030;2023-02-17T13:25:30;101003.78;;;11.87;66.80
57904;BME280;43720;47.462;19.030;2023-02-17T13:28:36;101000.47;;;11.53;69.85
57904;BME280;43720;47.462;19.030;2023-02-17T13:31:46;101007.91;;;11.33;72.16
57904;BME280;43720;47.462;19.030;2023-02-17T13:38:09;101000.88;;;11.31;70.26
57904;BME280;43720;47.462;19.030;2023-02-17T13:41:13;101001.97;;;11.42;69.86
57904;BME280;43720;47.462;19.030;2023-02-17T13:44:39;101001.41;;;11.57;71.88
57904;BME280;43720;47.462;19.030;2023-02-17T13:47:42;100994.81;;;11.75;72.31
57904;BME280;43720;47.462;19.030;2023-02-17T13:53:50;100972.78;;;12.11;71.48
57904;BME280;43720;47.462;19.030;2023-02-17T13:56:53;100972.00;;;12.15;69.84
57904;BME280;43720;47.462;19.030;2023-02-17T14:09:32;100951.59;;;12.51;68.28
57904;BME280;43720;47.462;19.030;2023-02-17T14:12:35;100948.97;;;12.49;69.62
57904;BME280;43720;47.462;19.030;2023-02-17T14:15:49;100948.97;;;12.49;70.09
57904;BME280;43720;47.462;19.030;2023-02-17T14:19:20;100952.50;;;12.51;68.10
57904;BME280;43720;47.462;19.030;2023-02-17T14:22:33;100942.88;;;12.52;68.29
57904;BME280;43720;47.462;19.030;2023-02-17T14:25:39;100940.22;;;12.48;69.66
57904;BME280;43720;47.462;19.030;2023-02-17T14:28:54;100944.75;;;12.59;68.22
57904;BME280;43720;47.462;19.030;2023-02-17T14:31:57;100949.09;;;12.58;67.01
57904;BME280;43720;47.462;19.030;2023-02-17T14:38:27;100937.41;;;12.36;68.29
57904;BME280;43720;47.462;19.030;2023-02-17T14:41:30;100942.41;;;12.22;68.02
57904;BME280;43720;47.462;19.030;2023-02-17T14:44:32;100941.13;;;11.99;68.20
57904;BME280;43720;47.462;19.030;2023-02-17T14:47:34;100941.06;;;11.96;68.92
57904;BME280;43720;47.462;19.030;2023-02-17T14:50:37;100936.69;;;11.93;68.08
57904;BME280;43720;47.462;19.030;2023-02-17T14:53:44;100937.50;;;11.91;68.79
57904;BME280;43720;47.462;19.030;2023-02-17T14:56:55;100930.28;;;11.81;66.81
57904;BME280;43720;47.462;19.030;2023-02-17T14:59:58;100931.94;;;11.75;66.69
57904;BME280;43720;47.462;19.030;2023-02-17T15:03:00;100930.06;;;11.68;67.70
57904;BME280;43720;47.462;19.030;2023-02-17T15:06:09;100922.03;;;11.59;68.12
57904;BME280;43720;47.462;19.030;2023-02-17T15:09:14;100912.44;;;11.58;68.32
57904;BME280;43720;47.462;19.030;2023-02-17T15:12:19;100916.00;;;11.63;68.10
57904;BME280;43720;47.462;19.030;2023-02-17T15:15:23;100915.00;;;11.57;69.08
57904;BME280;43720;47.462;19.030;2023-02-17T15:18:25;100912.22;;;11.49;69.96
57904;BME280;43720;47.462;19.030;2023-02-17T15:21:31;100905.25;;;11.48;69.09
57904;BME280;43720;47.462;19.030;2023-02-17T15:24:34;100901.53;;;11.37;71.08
57904;BME280;43720;47.462;19.030;2023-02-17T15:27:37;100895.28;;;11.30;72.00
57904;BME280;43720;47.462;19.030;2023-02-17T15:30:39;100892.72;;;11.32;69.53
57904;BME280;43720;47.462;19.030;2023-02-17T15:33:43;100893.50;;;11.27;70.07
57904;BME280;43720;47.462;19.030;2023-02-17T15:36:46;100896.00;;;11.21;70.60
57904;BME280;43720;47.462;19.030;2023-02-17T15:39:48;100895.03;;;11.16;70.31
57904;BME280;43720;47.462;19.030;2023-02-17T15:42:55;100891.31;;;11.07;73.33
57904;BME280;43720;47.462;19.030;2023-02-17T15:45:58;100892.16;;;11.04;71.35
57904;BME280;43720;47.462;19.030;2023-02-17T15:49:00;100889.53;;;11.04;70.93
57904;BME280;43720;47.462;19.030;2023-02-17T15:52:03;100893.72;;;10.96;72.54
57904;BME280;43720;47.462;19.030;2023-02-17T15:55:06;100905.72;;;10.86;74.59
57904;BME280;43720;47.462;19.030;2023-02-17T15:58:32;100915.22;;;10.81;74.99
57904;BME280;43720;47.462;19.030;2023-02-17T16:01:35;100912.53;;;10.80;73.75
